createdAt,value
2022-08-27T00:01:25.535Z,7.32
2022-08-27T00:03:56.126Z,7.00
2022-08-27T00:06:25.031Z,7.53
2022-08-27T00:08:53.800Z,7.65
2022-08-27T00:11:24.822Z,7.20
2022-08-27T00:13:54.611Z,7.65
2022-08-27T00:16:22.053Z,6.65
2022-08-27T00:18:49.733Z,6.65
2022-08-27T00:21:18.286Z,7.15
2022-08-27T00:23:45.613Z,6.30
2022-08-27T00:26:13.730Z,6.35
2022-08-27T00:28:42.572Z,7.22
2022-08-27T00:31:12.124Z,6.38
2022-08-27T00:33:40.832Z,6.72
2022-08-27T00:36:08.553Z,6.80
2022-08-27T00:38:38.786Z,6.15
2022-08-27T00:41:07.925Z,6.43
2022-08-27T00:43:59.556Z,5.45
2022-08-27T00:46:34.042Z,6.03
2022-08-27T00:49:07.029Z,6.13
2022-08-27T00:51:37.293Z,6.03
2022-08-27T00:54:06.829Z,5.68
2022-08-27T00:56:48.671Z,5.43
2022-08-27T00:59:19.858Z,5.80
2022-08-27T01:02:05.962Z,5.72
2022-08-27T01:04:36.046Z,5.63
2022-08-27T01:07:05.660Z,6.50
2022-08-27T01:09:34.865Z,6.63
2022-08-27T01:12:02.707Z,6.32
2022-08-27T01:14:29.914Z,5.50
2022-08-27T01:17:00.949Z,5.43
2022-08-27T01:19:38.606Z,5.50
2022-08-27T01:22:19.085Z,5.50
2022-08-27T01:24:52.210Z,5.50
2022-08-27T01:27:22.707Z,6.00
2022-08-27T01:29:50.318Z,5.55
2022-08-27T01:32:27.961Z,5.72
2022-08-27T01:34:56.398Z,5.78
2022-08-27T01:37:26.922Z,5.72
2022-08-27T01:39:56.565Z,6.10
2022-08-27T01:42:35.325Z,5.90
2022-08-27T01:45:13.003Z,5.78
2022-08-27T01:47:40.402Z,5.32
2022-08-27T01:50:12.125Z,5.25
2022-08-27T01:52:39.607Z,5.63
2022-08-27T01:55:09.619Z,5.65
2022-08-27T01:57:36.972Z,5.32
2022-08-27T02:00:17.973Z,5.97
2022-08-27T02:02:47.860Z,6.20
2022-08-27T02:05:16.752Z,5.75
2022-08-27T02:07:44.736Z,6.15
2022-08-27T02:10:15.487Z,5.30
2022-08-27T02:12:42.757Z,5.47
2022-08-27T02:15:10.421Z,5.25
2022-08-27T02:17:38.952Z,5.72
2022-08-27T02:20:09.293Z,7.05
2022-08-27T02:22:37.266Z,6.43
2022-08-27T02:25:10.357Z,7.32
2022-08-27T02:27:38.193Z,6.82
2022-08-27T02:30:06.385Z,7.03
2022-08-27T02:32:33.797Z,7.72
2022-08-27T02:35:01.805Z,7.18
2022-08-27T02:37:29.529Z,7.13
2022-08-27T02:39:59.349Z,6.68
2022-08-27T02:42:28.101Z,6.25
2022-08-27T02:44:55.280Z,6.32
2022-08-27T02:47:22.712Z,6.05
2022-08-27T02:49:49.920Z,6.57
2022-08-27T02:52:17.478Z,6.32
2022-08-27T02:54:52.861Z,6.07
2022-08-27T02:57:20.314Z,6.80
2022-08-27T02:59:47.987Z,5.95
2022-08-27T03:02:15.516Z,6.60
2022-08-27T03:04:43.166Z,6.60
2022-08-27T03:07:14.959Z,6.85
2022-08-27T03:09:46.385Z,6.15
2022-08-27T03:12:13.674Z,5.97
2022-08-27T03:14:41.061Z,6.53
2022-08-27T03:17:26.838Z,6.00
2022-08-27T03:19:55.837Z,6.82
2022-08-27T03:22:23.087Z,6.80
2022-08-27T03:24:51.381Z,6.70
2022-08-27T03:27:18.537Z,6.90
2022-08-27T03:29:45.858Z,6.88
2022-08-27T03:32:13.078Z,6.75
2022-08-27T03:34:40.290Z,6.20
2022-08-27T03:37:07.506Z,7.18
2022-08-27T03:39:34.960Z,7.25
2022-08-27T03:42:02.613Z,6.82
2022-08-27T03:44:30.218Z,7.57
2022-08-27T03:46:57.542Z,7.28
2022-08-27T03:49:24.819Z,7.00
2022-08-27T03:51:54.324Z,7.90
2022-08-27T03:54:22.886Z,9.35
2022-08-27T03:56:52.494Z,9.52
2022-08-27T03:59:20.424Z,9.13
2022-08-27T04:01:47.797Z,6.97
2022-08-27T04:04:15.058Z,7.45
2022-08-27T04:06:42.606Z,8.35
2022-08-27T04:09:09.872Z,9.77
2022-08-27T04:11:37.784Z,7.38
2022-08-27T04:14:24.765Z,6.85
2022-08-27T04:16:57.978Z,6.03
2022-08-27T04:19:28.516Z,5.80
2022-08-27T04:22:04.502Z,6.05
2022-08-27T04:24:33.877Z,5.55
2022-08-27T04:27:01.977Z,5.70
2022-08-27T04:29:29.912Z,5.72
2022-08-27T04:31:57.266Z,6.88
2022-08-27T04:34:25.000Z,5.78
2022-08-27T04:36:54.634Z,6.07
2022-08-27T04:39:22.046Z,6.40
2022-08-27T04:41:51.115Z,6.22
2022-08-27T04:44:18.451Z,5.90
2022-08-27T04:46:49.216Z,6.53
2022-08-27T04:49:17.388Z,7.05
2022-08-27T04:51:44.577Z,6.30
2022-08-27T04:54:13.304Z,7.28
2022-08-27T04:56:41.074Z,6.95
2022-08-27T04:59:10.353Z,7.22
2022-08-27T05:01:39.878Z,6.10
2022-08-27T05:04:08.313Z,6.25
2022-08-27T05:06:36.981Z,6.65
2022-08-27T05:09:05.977Z,5.85
2022-08-27T05:11:34.971Z,6.13
2022-08-27T05:14:07.315Z,5.95
2022-08-27T05:16:38.734Z,6.10
2022-08-27T05:19:14.875Z,5.53
2022-08-27T05:21:47.940Z,6.75
2022-08-27T05:24:15.880Z,6.25
2022-08-27T05:26:43.517Z,4.70
2022-08-27T05:29:11.732Z,5.70
2022-08-27T05:31:42.769Z,5.32
2022-08-27T05:34:16.707Z,5.13
2022-08-27T05:36:48.126Z,5.70
2022-08-27T05:39:17.554Z,5.55
2022-08-27T05:41:45.117Z,5.45
2022-08-27T05:44:46.287Z,4.60
2022-08-27T05:46:59.692Z,4.95
2022-08-27T05:49:26.995Z,5.22
2022-08-27T05:51:54.455Z,5.05
2022-08-27T05:54:21.934Z,4.88
2022-08-27T05:56:50.245Z,5.32
2022-08-27T05:59:37.077Z,4.95
2022-08-27T06:02:06.368Z,5.28
2022-08-27T06:04:34.029Z,4.50
2022-08-27T06:07:01.378Z,4.60
2022-08-27T06:09:29.824Z,4.20
2022-08-27T06:11:58.684Z,4.15
2022-08-27T06:14:26.775Z,4.32
2022-08-27T06:16:54.637Z,4.47
2022-08-27T06:19:21.926Z,4.75
2022-08-27T06:22:00.842Z,4.35
2022-08-27T06:24:39.850Z,5.07
2022-08-27T06:27:08.847Z,4.50
2022-08-27T06:29:36.149Z,4.97
2022-08-27T06:32:03.593Z,4.38
2022-08-27T06:34:30.785Z,5.57
2022-08-27T06:36:58.136Z,4.85
2022-08-27T06:39:25.411Z,5.25
2022-08-27T06:41:53.330Z,5.22
2022-08-27T06:44:24.513Z,4.85
2022-08-27T06:46:52.537Z,5.00
2022-08-27T06:49:19.731Z,4.82
2022-08-27T06:51:48.296Z,4.97
2022-08-27T06:54:17.303Z,4.70
2022-08-27T06:56:47.175Z,4.75
2022-08-27T06:59:17.730Z,5.22
2022-08-27T07:01:49.604Z,5.28
2022-08-27T07:04:32.412Z,5.10
2022-08-27T07:07:03.926Z,5.30
2022-08-27T07:09:35.088Z,5.32
2022-08-27T07:12:04.359Z,4.63
2022-08-27T07:14:37.155Z,4.80
2022-08-27T07:17:07.810Z,4.90
2022-08-27T07:19:41.127Z,4.40
2022-08-27T07:22:11.148Z,4.90
2022-08-27T07:24:38.515Z,4.88
2022-08-27T07:27:06.713Z,4.50
2022-08-27T07:29:33.968Z,5.35
2022-08-27T07:32:02.856Z,5.15
2022-08-27T07:34:30.411Z,5.00
2022-08-27T07:36:58.962Z,4.65
2022-08-27T07:39:26.267Z,5.47
2022-08-27T07:42:15.600Z,4.63
2022-08-27T07:44:42.896Z,4.88
2022-08-27T07:47:10.373Z,5.22
2022-08-27T07:49:37.942Z,5.30
2022-08-27T07:52:05.332Z,5.13
2022-08-27T07:54:33.440Z,5.35
2022-08-27T07:57:00.757Z,5.63
2022-08-27T07:59:28.306Z,5.65
2022-08-27T08:01:56.905Z,5.88
2022-08-27T08:04:25.334Z,5.45
2022-08-27T08:06:52.798Z,5.60
2022-08-27T08:09:22.471Z,5.95
2022-08-27T08:11:51.104Z,6.00
2022-08-27T08:14:19.256Z,6.45
2022-08-27T08:16:46.861Z,5.70
2022-08-27T08:19:14.184Z,5.32
2022-08-27T08:21:42.556Z,5.97
2022-08-27T08:24:09.779Z,5.72
2022-08-27T08:26:37.116Z,6.25
2022-08-27T08:29:07.187Z,5.40
2022-08-27T08:31:34.541Z,5.82
2022-08-27T08:34:01.939Z,6.00
2022-08-27T08:36:30.234Z,6.00
2022-08-27T08:38:57.487Z,5.30
2022-08-27T08:41:43.005Z,5.88
2022-08-27T08:44:32.727Z,5.97
2022-08-27T08:47:17.248Z,5.70
2022-08-27T08:49:56.529Z,5.95
2022-08-27T08:52:38.940Z,5.90
2022-08-27T08:55:47.963Z,6.15
2022-08-27T08:58:29.709Z,6.47
2022-08-27T09:01:00.760Z,5.55
2022-08-27T09:03:29.342Z,5.85
2022-08-27T09:06:24.397Z,5.30
2022-08-27T09:08:51.748Z,5.35
2022-08-27T09:11:27.884Z,5.53
2022-08-27T09:14:02.829Z,5.20
2022-08-27T09:16:30.717Z,5.40
2022-08-27T09:18:58.501Z,5.40
2022-08-27T09:22:02.228Z,5.25
2022-08-27T09:24:48.643Z,5.00
2022-08-27T09:27:16.437Z,4.90
2022-08-27T09:29:53.519Z,5.30
2022-08-27T09:32:27.253Z,5.03
2022-08-27T09:34:59.940Z,4.88
2022-08-27T09:37:34.201Z,5.18
2022-08-27T09:40:13.507Z,5.25
2022-08-27T09:42:56.407Z,4.95
2022-08-27T09:45:26.914Z,4.75
2022-08-27T09:48:16.797Z,4.93
2022-08-27T09:50:54.533Z,4.57
2022-08-27T09:53:29.789Z,5.05
2022-08-27T09:56:09.399Z,4.68
2022-08-27T09:58:45.817Z,3.92
2022-08-27T10:01:24.857Z,3.30
2022-08-27T10:04:13.837Z,2.80
2022-08-27T10:06:51.801Z,3.28
2022-08-27T10:09:35.870Z,3.75
2022-08-27T10:12:47.636Z,3.35
2022-08-27T10:15:15.669Z,3.08
2022-08-27T10:18:20.137Z,3.25
2022-08-27T10:21:09.464Z,3.25
2022-08-27T10:23:45.479Z,3.55
2022-08-27T10:26:41.179Z,3.40
2022-08-27T10:29:12.277Z,3.20
2022-08-27T10:31:58.127Z,3.15
2022-08-27T10:34:31.433Z,2.80
2022-08-27T10:37:19.745Z,2.33
2022-08-27T10:40:18.308Z,2.90
2022-08-27T10:43:18.138Z,2.90
2022-08-27T10:45:54.428Z,3.08
2022-08-27T10:48:35.418Z,3.10
2022-08-27T10:51:24.947Z,3.05
2022-08-27T10:54:10.606Z,3.13
2022-08-27T10:57:14.417Z,3.55
2022-08-27T11:00:11.022Z,3.08
2022-08-27T11:02:38.345Z,3.20
2022-08-27T11:05:24.418Z,2.90
2022-08-27T11:08:10.889Z,3.20
2022-08-27T11:10:47.467Z,2.97
2022-08-27T11:13:40.891Z,3.20
2022-08-27T11:16:45.464Z,3.08
2022-08-27T11:19:57.384Z,2.90
2022-08-27T11:22:34.861Z,2.88
2022-08-27T11:25:11.061Z,3.50
2022-08-27T11:27:40.329Z,3.03
2022-08-27T11:30:31.054Z,2.78
2022-08-27T11:33:31.998Z,3.10
2022-08-27T11:36:21.135Z,3.00
2022-08-27T11:38:51.468Z,3.20
2022-08-27T11:41:52.329Z,3.17
2022-08-27T11:44:23.126Z,3.13
2022-08-27T11:47:15.337Z,2.80
2022-08-27T11:49:52.010Z,3.00
2022-08-27T11:52:38.378Z,2.60
2022-08-27T11:55:21.055Z,3.13
2022-08-27T11:58:05.725Z,3.22
2022-08-27T12:00:36.107Z,3.10
2022-08-27T12:03:23.434Z,3.30
2022-08-27T12:05:53.574Z,3.28
2022-08-27T12:08:26.554Z,3.03
2022-08-27T12:11:15.317Z,2.78
2022-08-27T12:13:51.960Z,3.00
2022-08-27T12:16:42.376Z,3.10
2022-08-27T12:19:47.407Z,2.92
2022-08-27T12:22:36.620Z,2.78
2022-08-27T12:25:08.143Z,3.60
2022-08-27T12:27:35.519Z,3.80
2022-08-27T12:30:29.718Z,3.25
2022-08-27T12:32:59.798Z,4.18
2022-08-27T12:35:34.435Z,3.50
2022-08-27T12:38:01.866Z,3.60
2022-08-27T12:40:39.546Z,3.80
2022-08-27T12:43:18.568Z,3.67
2022-08-27T12:45:58.039Z,3.30
2022-08-27T12:48:30.610Z,4.63
2022-08-27T12:51:09.221Z,4.20
2022-08-27T12:53:52.855Z,4.40
2022-08-27T12:56:31.702Z,4.28
2022-08-27T12:59:11.711Z,4.75
2022-08-27T13:01:50.257Z,4.32
2022-08-27T13:04:23.430Z,5.15
2022-08-27T13:06:51.753Z,4.80
2022-08-27T13:09:31.575Z,4.40
2022-08-27T13:12:00.975Z,5.07
2022-08-27T13:14:36.667Z,5.18
2022-08-27T13:17:10.070Z,4.75
2022-08-27T13:19:44.724Z,4.20
2022-08-27T13:22:21.661Z,4.95
2022-08-27T13:24:51.607Z,3.83
2022-08-27T13:27:29.460Z,3.85
2022-08-27T13:30:01.922Z,4.32
2022-08-27T13:32:31.190Z,4.43
2022-08-27T13:35:00.799Z,4.10
2022-08-27T13:37:36.396Z,3.50
2022-08-27T13:40:04.342Z,3.50
2022-08-27T13:42:31.802Z,3.63
2022-08-27T13:45:04.925Z,3.15
2022-08-27T13:47:42.406Z,3.88
2022-08-27T13:50:25.842Z,3.42
2022-08-27T13:53:17.473Z,3.72
2022-08-27T13:55:49.272Z,3.38
2022-08-27T13:58:37.021Z,3.70
2022-08-27T14:01:32.939Z,3.28
2022-08-27T14:04:05.145Z,3.88
2022-08-27T14:06:43.934Z,3.70
2022-08-27T14:09:30.829Z,3.72
2022-08-27T14:12:10.955Z,3.92
2022-08-27T14:14:41.877Z,4.43
2022-08-27T14:17:26.781Z,4.28
2022-08-27T14:20:07.113Z,3.92
2022-08-27T14:22:37.408Z,4.28
2022-08-27T14:25:05.058Z,4.20
2022-08-27T14:27:32.584Z,4.70
2022-08-27T14:29:59.863Z,4.00
2022-08-27T14:32:27.354Z,4.28
2022-08-27T14:34:54.593Z,4.07
2022-08-27T14:37:22.088Z,4.60
2022-08-27T14:39:49.486Z,4.50
2022-08-27T14:42:17.901Z,3.35
2022-08-27T14:44:46.929Z,2.53
2022-08-27T14:47:16.695Z,3.20
2022-08-27T14:49:47.294Z,4.05
2022-08-27T14:52:15.589Z,3.92
2022-08-27T14:54:45.200Z,2.60
2022-08-27T14:57:12.703Z,3.13
2022-08-27T14:59:40.924Z,3.13
2022-08-27T15:02:14.170Z,2.65
2022-08-27T15:04:42.337Z,2.72
2022-08-27T15:07:14.751Z,2.88
2022-08-27T15:09:42.489Z,2.95
2022-08-27T15:12:15.086Z,2.35
2022-08-27T15:14:54.633Z,2.90
2022-08-27T15:17:34.667Z,2.58
2022-08-27T15:20:06.057Z,2.65
2022-08-27T15:22:34.771Z,2.47
2022-08-27T15:25:05.382Z,2.38
2022-08-27T15:27:38.435Z,2.47
2022-08-27T15:30:09.191Z,3.15
2022-08-27T15:32:40.662Z,2.72
2022-08-27T15:35:14.058Z,2.50
2022-08-27T15:37:42.901Z,2.40
2022-08-27T15:40:11.806Z,2.50
2022-08-27T15:42:39.317Z,2.55
2022-08-27T15:45:08.618Z,2.28
2022-08-27T15:47:35.954Z,2.42
2022-08-27T15:50:03.345Z,3.10
2022-08-27T15:52:40.196Z,2.53
2022-08-27T15:55:25.193Z,2.38
2022-08-27T15:57:52.470Z,3.08
2022-08-27T16:00:20.422Z,2.55
2022-08-27T16:02:48.798Z,2.60
2022-08-27T16:05:16.658Z,2.30
2022-08-27T16:07:44.821Z,2.47
2022-08-27T16:10:12.818Z,2.55
2022-08-27T16:12:40.260Z,2.67
2022-08-27T16:15:08.767Z,2.55
2022-08-27T16:17:36.597Z,2.20
2022-08-27T16:20:06.095Z,1.98
2022-08-27T16:22:35.082Z,2.20
2022-08-27T16:25:03.583Z,2.30
2022-08-27T16:27:30.801Z,2.92
2022-08-27T16:29:58.071Z,2.60
2022-08-27T16:32:26.110Z,2.58
2022-08-27T16:34:56.099Z,2.47
2022-08-27T16:37:24.969Z,2.22
2022-08-27T16:39:52.500Z,2.50
2022-08-27T16:42:20.629Z,2.17
2022-08-27T16:44:48.236Z,2.22
2022-08-27T16:47:16.174Z,2.50
2022-08-27T16:50:01.777Z,2.28
2022-08-27T16:52:30.339Z,2.03
2022-08-27T16:54:57.568Z,2.50
2022-08-27T16:57:24.970Z,2.50
2022-08-27T16:59:52.147Z,2.50
2022-08-27T17:02:31.594Z,3.25
2022-08-27T17:05:12.330Z,2.35
2022-08-27T17:07:50.039Z,2.70
2022-08-27T17:10:19.111Z,2.55
2022-08-27T17:12:47.417Z,3.40
2022-08-27T17:15:18.453Z,3.10
2022-08-27T17:17:46.529Z,3.15
2022-08-27T17:20:15.761Z,2.95
2022-08-27T17:22:43.978Z,3.05
2022-08-27T17:25:11.308Z,2.85
2022-08-27T17:27:38.883Z,2.83
2022-08-27T17:30:07.511Z,2.75
2022-08-27T17:32:39.009Z,3.15
2022-08-27T17:35:10.601Z,3.10
2022-08-27T17:37:38.580Z,3.33
2022-08-27T17:40:06.920Z,2.75
2022-08-27T17:42:34.271Z,3.30
2022-08-27T17:45:01.490Z,3.35
2022-08-27T17:47:30.141Z,3.33
2022-08-27T17:49:59.247Z,3.17
2022-08-27T17:52:26.475Z,3.45
2022-08-27T17:54:56.959Z,3.42
2022-08-27T17:57:25.680Z,3.60
2022-08-27T17:59:55.742Z,4.20
2022-08-27T18:02:33.492Z,3.45
2022-08-27T18:05:01.266Z,3.85
2022-08-27T18:07:30.575Z,4.78
2022-08-27T18:09:57.806Z,4.43
2022-08-27T18:12:27.524Z,4.47
2022-08-27T18:15:10.661Z,4.65
2022-08-27T18:17:42.528Z,5.28
2022-08-27T18:20:13.479Z,5.78
2022-08-27T18:22:48.306Z,5.22
2022-08-27T18:25:18.213Z,5.47
2022-08-27T18:27:48.661Z,5.78
2022-08-27T18:30:16.643Z,5.20
2022-08-27T18:32:43.991Z,5.13
2022-08-27T18:35:20.799Z,5.32
2022-08-27T18:37:48.480Z,4.88
2022-08-27T18:40:17.597Z,4.38
2022-08-27T18:42:45.389Z,5.10
2022-08-27T18:45:28.529Z,5.30
2022-08-27T18:50:25.024Z,4.45
2022-08-27T18:52:57.026Z,4.15
2022-08-27T18:55:28.486Z,3.13
2022-08-27T18:57:57.135Z,3.00
2022-08-27T19:00:25.398Z,3.15
2022-08-27T19:02:54.095Z,3.20
2022-08-27T19:05:25.360Z,3.10
2022-08-27T19:07:54.415Z,3.40
2022-08-27T19:10:21.897Z,3.28
2022-08-27T19:12:49.228Z,2.88
2022-08-27T19:15:17.471Z,3.53
2022-08-27T19:17:50.888Z,3.03
2022-08-27T19:20:18.970Z,3.58
2022-08-27T19:22:48.172Z,3.25
2022-08-27T19:25:16.578Z,3.30
2022-08-27T19:27:45.431Z,2.80
2022-08-27T19:30:15.281Z,3.00
2022-08-27T19:32:42.607Z,3.20
2022-08-27T19:35:10.764Z,3.22
2022-08-27T19:37:42.884Z,3.20
2022-08-27T19:40:13.212Z,3.22
2022-08-27T19:42:41.678Z,3.50
2022-08-27T19:45:09.612Z,3.40
2022-08-27T19:47:37.337Z,3.67
2022-08-27T19:50:05.901Z,3.20
2022-08-27T19:52:33.191Z,3.80
2022-08-27T19:55:13.730Z,3.30
2022-08-27T19:57:42.823Z,3.15
2022-08-27T20:00:11.630Z,3.25
2022-08-27T20:02:39.166Z,3.60
2022-08-27T20:05:22.990Z,3.50
2022-08-27T20:07:52.146Z,3.47
2022-08-27T20:10:23.433Z,4.10
2022-08-27T20:13:00.141Z,3.63
2022-08-27T20:15:27.598Z,4.63
2022-08-27T20:17:56.314Z,5.25
2022-08-27T20:20:25.516Z,5.57
2022-08-27T20:22:53.520Z,5.70
2022-08-27T20:25:21.136Z,5.43
2022-08-27T20:27:48.343Z,5.20
2022-08-27T20:30:17.001Z,5.75
2022-08-27T20:32:44.235Z,5.68
2022-08-27T20:35:11.725Z,5.43
2022-08-27T20:37:42.273Z,5.40
2022-08-27T20:40:18.150Z,5.70
2022-08-27T20:42:45.634Z,5.70
2022-08-27T20:45:13.873Z,5.85
2022-08-27T20:47:43.576Z,6.15
2022-08-27T20:50:12.034Z,5.45
2022-08-27T20:52:40.404Z,5.82
2022-08-27T20:55:09.932Z,5.80
2022-08-27T20:57:37.081Z,5.93
2022-08-27T21:00:21.572Z,6.10
2022-08-27T21:02:48.923Z,6.55
2022-08-27T21:05:18.288Z,7.68
2022-08-27T21:07:48.778Z,8.65
2022-08-27T21:10:16.414Z,7.97
2022-08-27T21:12:44.499Z,8.05
2022-08-27T21:15:13.626Z,7.55
2022-08-27T21:17:41.312Z,7.40
2022-08-27T21:20:11.098Z,7.18
2022-08-27T21:22:39.489Z,5.80
2022-08-27T21:25:08.793Z,5.88
2022-08-27T21:27:36.691Z,6.03
2022-08-27T21:30:05.237Z,6.50
2022-08-27T21:32:34.914Z,5.78
2022-08-27T21:35:02.201Z,5.10
2022-08-27T21:37:29.379Z,4.72
2022-08-27T21:39:56.735Z,4.00
2022-08-27T21:42:25.432Z,4.15
2022-08-27T21:44:52.737Z,4.40
2022-08-27T21:47:20.019Z,4.13
2022-08-27T21:49:47.188Z,3.70
2022-08-27T21:52:14.583Z,4.15
2022-08-27T21:54:42.375Z,4.30
2022-08-27T21:57:13.921Z,3.85
2022-08-27T21:59:45.894Z,4.25
2022-08-27T22:02:38.340Z,4.43
2022-08-27T22:05:02.688Z,4.43
2022-08-27T22:07:30.066Z,4.28
2022-08-27T22:09:57.388Z,3.53
2022-08-27T22:12:25.658Z,4.25
2022-08-27T22:14:52.801Z,4.03
2022-08-27T22:17:19.987Z,4.50
2022-08-27T22:19:47.166Z,4.85
2022-08-27T22:22:14.437Z,4.75
2022-08-27T22:24:41.576Z,4.43
2022-08-27T22:27:08.839Z,4.47
2022-08-27T22:29:36.173Z,4.30
2022-08-27T22:32:03.719Z,5.43
2022-08-27T22:34:30.846Z,4.63
2022-08-27T22:36:58.034Z,4.55
2022-08-27T22:39:25.250Z,4.32
2022-08-27T22:41:56.299Z,4.40
2022-08-27T22:44:24.821Z,4.50
2022-08-27T22:46:52.207Z,4.68
2022-08-27T22:49:19.471Z,7.50
2022-08-27T22:51:46.875Z,7.75
2022-08-27T22:54:14.205Z,8.40
2022-08-27T22:56:41.469Z,8.05
2022-08-27T22:59:08.794Z,6.65
2022-08-27T23:01:36.595Z,5.80
2022-08-27T23:04:04.907Z,5.50
2022-08-27T23:06:34.021Z,5.40
2022-08-27T23:09:02.002Z,4.15
2022-08-27T23:11:31.965Z,3.85
2022-08-27T23:14:00.230Z,3.95
2022-08-27T23:16:28.319Z,3.67
2022-08-27T23:18:55.618Z,3.28
2022-08-27T23:21:22.959Z,3.80
2022-08-27T23:23:50.346Z,3.83
2022-08-27T23:26:35.824Z,3.50
2022-08-27T23:29:03.198Z,3.72
2022-08-27T23:31:30.612Z,3.30
2022-08-27T23:33:58.330Z,3.58
2022-08-27T23:36:25.684Z,3.58
2022-08-27T23:38:53.138Z,3.38
2022-08-27T23:41:20.434Z,3.88
2022-08-27T23:43:47.780Z,3.67
2022-08-27T23:46:15.203Z,3.75
2022-08-27T23:48:42.540Z,3.50
2022-08-27T23:51:10.553Z,3.83
2022-08-27T23:53:38.382Z,3.75
2022-08-27T23:56:06.217Z,4.07
2022-08-27T23:58:33.384Z,3.60
